Thursday, March 30, 2017, 2:24 PM EDT

KOFP, Hanover County Municipal

Location: Ashland, VA, United States Lat: 37.7
Local Time: 2:24 PM EDT (18:24 GMT) Lon: -77.433
Time Zone: US/Eastern Elev: 203 ft

Show me the last for .
Show Decoded

2017-03-30 13:54 METAR KOFP 301754Z AUTO 16006KT 10SM OVC046 13/02 A3018 RMK AO2 SLP219 T01330022
                 10133 20083 58025 =
2017-03-30 12:54 METAR KOFP 301654Z AUTO 15005KT 10SM OVC049 12/02 A3021 RMK AO2 SLP229 T01220017
                 =
2017-03-30 11:54 METAR KOFP 301554Z AUTO VRB03KT 10SM OVC050 12/01 A3023 RMK AO2 SLP237 T01170006
                 =
2017-03-30 10:54 METAR KOFP 301454Z AUTO 12006KT 10SM OVC055 11/01 A3025 RMK AO2 SLP244 T01060006
                 58000 =
2017-03-30 09:54 METAR KOFP 301354Z AUTO VRB06KT 10SM OVC055 09/01 A3025 RMK AO2 SLP245 T00940006
                 =
2017-03-30 08:54 METAR KOFP 301254Z AUTO 06007KT 10SM OVC060 09/01 A3025 RMK AO2 SLP244 T00890006
                 =
2017-03-30 07:54 METAR KOFP 301154Z AUTO VRB04KT 10SM OVC060 08/02 A3025 RMK AO2 SLP243 T00830017
                 10083 20056 53020 =
2017-03-30 06:54 METAR KOFP 301054Z AUTO 02003KT 10SM OVC060 08/02 A3023 RMK AO2 SLP236 T00830022
                 =
2017-03-30 05:54 METAR KOFP 300954Z AUTO 00000KT 10SM OVC060 08/03 A3021 RMK AO2 SLP229 T00780033
                 =
2017-03-30 04:54 METAR KOFP 300854Z AUTO 00000KT 10SM SCT065 OVC080 06/02 A3019 RMK AO2 SLP223
                 T00610022 53001 =
2017-03-30 03:54 METAR KOFP 300754Z AUTO 00000KT 10SM OVC070 07/02 A3018 RMK AO2 SLP220 T00670022
                 =
2017-03-30 02:54 METAR KOFP 300654Z AUTO 00000KT 10SM CLR 06/02 A3019 RMK AO2 SLP223 T00610022 =
2017-03-30 01:54 METAR KOFP 300554Z AUTO 00000KT 10SM FEW070 07/02 A3019 RMK AO2 SLP222 T00720022
                 10150 20072 53000 =
2017-03-30 00:54 METAR KOFP 300454Z AUTO 00000KT 10SM CLR 09/02 A3019 RMK AO2 SLP222 T00940022
                 402110094 =
2017-03-29 23:54 METAR KOFP 300354Z AUTO 08003KT 10SM CLR 11/03 A3018 RMK AO2 SLP219 T01110033 =
2017-03-29 22:54 METAR KOFP 300254Z AUTO 09003KT 10SM CLR 12/04 A3019 RMK AO2 SLP221 T01170044
                 51021 =
2017-03-29 21:54 METAR KOFP 300154Z AUTO 08005KT 10SM CLR 13/03 A3017 RMK AO2 SLP217 T01280028 =
2017-03-29 20:54 METAR KOFP 300054Z AUTO 00000KT 10SM CLR 13/04 A3014 RMK AO2 SLP206 T01280039 =
2017-03-29 19:54 METAR KOFP 292354Z AUTO 06003KT 10SM CLR 14/05 A3012 RMK AO2 SLP200 T01440050
                 10211 20144 53017 =
2017-03-29 18:54 METAR KOFP 292254Z AUTO 02003KT 10SM CLR 19/04 A3011 RMK AO2 SLP194 T01890039 =
2017-03-29 17:54 METAR KOFP 292154Z AUTO 10SM CLR 21/04 A3009 RMK AO2 SLP188 T02060039 =
2017-03-29 16:54 METAR KOFP 292054Z AUTO VRB04KT 10SM CLR 21/05 A3007 RMK AO2 SLP183 T02060050
                 56012 =
2017-03-29 15:54 METAR KOFP 291954Z AUTO VRB04KT 10SM FEW050 21/05 A3008 RMK AO2 SLP183 T02060050
                 =
2017-03-29 14:54 METAR KOFP 291854Z AUTO 31010G15KT 10SM SCT047 19/07 A3009 RMK AO2 SLP189
                 T01940067 =

Support USWX by starting your Amazon purchase here.